sensor_id;sensor_type;location;lat;lon;timestamp;P1;durP1;ratioP1;P2;durP2;ratioP2
12675;SDS011;63820;65.654;21.944;2023-03-04T00:01:53;0.80;;;0.50;;
12675;SDS011;63820;65.654;21.944;2023-03-04T00:04:37;1.07;;;0.50;;
12675;SDS011;63820;65.654;21.944;2023-03-04T00:07:21;2.30;;;0.43;;
12675;SDS011;63820;65.654;21.944;2023-03-04T00:10:05;3.87;;;0.60;;
12675;SDS011;63820;65.654;21.944;2023-03-04T00:12:50;1.00;;;0.57;;
12675;SDS011;63820;65.654;21.944;2023-03-04T00:15:34;2.30;;;0.50;;
12675;SDS011;63820;65.654;21.944;2023-03-04T00:18:18;1.50;;;0.57;;
12675;SDS011;63820;65.654;21.944;2023-03-04T00:21:03;1.20;;;0.40;;
12675;SDS011;63820;65.654;21.944;2023-03-04T00:23:48;1.30;;;0.67;;
12675;SDS011;63820;65.654;21.944;2023-03-04T00:26:33;0.60;;;0.50;;
12675;SDS011;63820;65.654;21.944;2023-03-04T00:29:17;2.03;;;0.50;;
12675;SDS011;63820;65.654;21.944;2023-03-04T00:32:01;3.60;;;0.87;;
12675;SDS011;63820;65.654;21.944;2023-03-04T00:34:46;1.53;;;0.43;;
12675;SDS011;63820;65.654;21.944;2023-03-04T00:37:30;1.50;;;0.53;;
12675;SDS011;63820;65.654;21.944;2023-03-04T00:40:14;2.70;;;0.53;;
12675;SDS011;63820;65.654;21.944;2023-03-04T00:42:59;1.70;;;0.50;;
12675;SDS011;63820;65.654;21.944;2023-03-04T00:45:43;1.33;;;0.57;;
12675;SDS011;63820;65.654;21.944;2023-03-04T00:48:28;1.23;;;0.60;;
12675;SDS011;63820;65.654;21.944;2023-03-04T00:51:12;1.30;;;0.50;;
12675;SDS011;63820;65.654;21.944;2023-03-04T00:53:56;1.00;;;0.67;;
12675;SDS011;63820;65.654;21.944;2023-03-04T00:56:40;1.87;;;0.40;;
12675;SDS011;63820;65.654;21.944;2023-03-04T00:59:24;1.80;;;0.60;;
12675;SDS011;63820;65.654;21.944;2023-03-04T01:02:09;1.23;;;0.60;;
12675;SDS011;63820;65.654;21.944;2023-03-04T01:04:53;1.17;;;0.50;;
12675;SDS011;63820;65.654;21.944;2023-03-04T01:07:38;3.10;;;0.60;;
12675;SDS011;63820;65.654;21.944;2023-03-04T01:10:22;2.10;;;0.70;;
12675;SDS011;63820;65.654;21.944;2023-03-04T01:13:06;1.50;;;0.80;;
12675;SDS011;63820;65.654;21.944;2023-03-04T01:15:50;1.87;;;0.50;;
12675;SDS011;63820;65.654;21.944;2023-03-04T01:18:35;3.17;;;0.67;;
12675;SDS011;63820;65.654;21.944;2023-03-04T01:21:20;0.63;;;0.33;;
12675;SDS011;63820;65.654;21.944;2023-03-04T01:24:04;2.10;;;0.80;;
12675;SDS011;63820;65.654;21.944;2023-03-04T01:26:48;1.07;;;0.70;;
12675;SDS011;63820;65.654;21.944;2023-03-04T01:29:33;2.63;;;0.60;;
12675;SDS011;63820;65.654;21.944;2023-03-04T01:32:17;3.17;;;0.80;;
12675;SDS011;63820;65.654;21.944;2023-03-04T01:35:01;1.47;;;0.43;;
12675;SDS011;63820;65.654;21.944;2023-03-04T01:37:45;3.40;;;1.07;;
12675;SDS011;63820;65.654;21.944;2023-03-04T01:40:30;2.23;;;0.30;;
12675;SDS011;63820;65.654;21.944;2023-03-04T01:43:15;2.70;;;0.90;;
12675;SDS011;63820;65.654;21.944;2023-03-04T01:46:05;1.47;;;0.50;;
12675;SDS011;63820;65.654;21.944;2023-03-04T01:48:51;1.40;;;0.60;;
12675;SDS011;63820;65.654;21.944;2023-03-04T01:51:35;2.07;;;0.73;;
12675;SDS011;63820;65.654;21.944;2023-03-04T01:54:20;1.20;;;0.50;;
12675;SDS011;63820;65.654;21.944;2023-03-04T01:57:09;1.80;;;0.60;;
12675;SDS011;63820;65.654;21.944;2023-03-04T02:00:20;3.00;;;0.60;;
12675;SDS011;63820;65.654;21.944;2023-03-04T02:03:08;0.77;;;0.57;;
12675;SDS011;63820;65.654;21.944;2023-03-04T02:05:55;1.23;;;0.50;;
12675;SDS011;63820;65.654;21.944;2023-03-04T02:08:39;1.60;;;0.40;;
12675;SDS011;63820;65.654;21.944;2023-03-04T02:11:23;3.13;;;0.80;;
12675;SDS011;63820;65.654;21.944;2023-03-04T02:14:08;3.57;;;1.03;;
12675;SDS011;63820;65.654;21.944;2023-03-04T02:16:54;0.87;;;0.43;;
12675;SDS011;63820;65.654;21.944;2023-03-04T02:23:08;2.57;;;0.70;;
12675;SDS011;63820;65.654;21.944;2023-03-04T02:26:08;1.70;;;0.50;;
12675;SDS011;63820;65.654;21.944;2023-03-04T02:28:57;1.33;;;0.43;;
12675;SDS011;63820;65.654;21.944;2023-03-04T02:31:46;2.47;;;0.60;;
12675;SDS011;63820;65.654;21.944;2023-03-04T02:34:33;2.43;;;0.70;;
12675;SDS011;63820;65.654;21.944;2023-03-04T02:37:18;1.93;;;0.40;;
12675;SDS011;63820;65.654;21.944;2023-03-04T02:40:04;0.50;;;0.50;;
12675;SDS011;63820;65.654;21.944;2023-03-04T02:42:50;0.67;;;0.40;;
12675;SDS011;63820;65.654;21.944;2023-03-04T02:48:24;2.57;;;0.40;;
12675;SDS011;63820;65.654;21.944;2023-03-04T02:51:08;2.13;;;0.40;;
12675;SDS011;63820;65.654;21.944;2023-03-04T02:53:52;3.13;;;0.60;;
12675;SDS011;63820;65.654;21.944;2023-03-04T02:56:36;3.13;;;0.57;;
12675;SDS011;63820;65.654;21.944;2023-03-04T02:59:21;1.87;;;0.53;;
12675;SDS011;63820;65.654;21.944;2023-03-04T03:02:06;0.70;;;0.40;;
12675;SDS011;63820;65.654;21.944;2023-03-04T03:04:51;1.03;;;0.40;;
12675;SDS011;63820;65.654;21.944;2023-03-04T03:07:35;1.43;;;0.50;;
12675;SDS011;63820;65.654;21.944;2023-03-04T03:10:19;0.50;;;0.40;;
12675;SDS011;63820;65.654;21.944;2023-03-04T03:13:04;1.53;;;0.40;;
12675;SDS011;63820;65.654;21.944;2023-03-04T03:15:48;1.43;;;0.40;;
12675;SDS011;63820;65.654;21.944;2023-03-04T03:18:32;1.50;;;0.47;;
12675;SDS011;63820;65.654;21.944;2023-03-04T03:21:16;0.43;;;0.43;;
12675;SDS011;63820;65.654;21.944;2023-03-04T03:24:00;3.57;;;0.60;;
12675;SDS011;63820;65.654;21.944;2023-03-04T03:26:44;1.47;;;0.30;;
12675;SDS011;63820;65.654;21.944;2023-03-04T03:29:28;0.60;;;0.40;;
12675;SDS011;63820;65.654;21.944;2023-03-04T03:32:12;1.30;;;0.43;;
12675;SDS011;63820;65.654;21.944;2023-03-04T03:34:56;0.50;;;0.30;;
12675;SDS011;63820;65.654;21.944;2023-03-04T03:37:41;0.53;;;0.47;;
12675;SDS011;63820;65.654;21.944;2023-03-04T03:40:25;0.53;;;0.33;;
12675;SDS011;63820;65.654;21.944;2023-03-04T03:43:09;0.57;;;0.43;;
12675;SDS011;63820;65.654;21.944;2023-03-04T03:45:53;0.33;;;0.30;;
12675;SDS011;63820;65.654;21.944;2023-03-04T03:48:37;2.30;;;0.50;;
12675;SDS011;63820;65.654;21.944;2023-03-04T03:51:21;2.13;;;0.43;;
12675;SDS011;63820;65.654;21.944;2023-03-04T03:54:05;0.70;;;0.37;;
12675;SDS011;63820;65.654;21.944;2023-03-04T03:56:49;1.13;;;0.50;;
12675;SDS011;63820;65.654;21.944;2023-03-04T03:59:33;3.03;;;0.37;;
12675;SDS011;63820;65.654;21.944;2023-03-04T04:02:17;0.30;;;0.30;;
12675;SDS011;63820;65.654;21.944;2023-03-04T04:05:02;1.27;;;0.50;;
12675;SDS011;63820;65.654;21.944;2023-03-04T04:07:46;1.07;;;0.40;;
12675;SDS011;63820;65.654;21.944;2023-03-04T04:10:30;0.70;;;0.30;;
12675;SDS011;63820;65.654;21.944;2023-03-04T04:13:14;0.87;;;0.30;;
12675;SDS011;63820;65.654;21.944;2023-03-04T04:15:58;0.57;;;0.37;;
12675;SDS011;63820;65.654;21.944;2023-03-04T04:18:43;0.40;;;0.40;;
12675;SDS011;63820;65.654;21.944;2023-03-04T04:21:27;0.33;;;0.20;;
12675;SDS011;63820;65.654;21.944;2023-03-04T04:24:10;1.47;;;0.30;;
12675;SDS011;63820;65.654;21.944;2023-03-04T04:26:55;1.83;;;0.40;;
12675;SDS011;63820;65.654;21.944;2023-03-04T04:29:40;1.33;;;0.40;;
12675;SDS011;63820;65.654;21.944;2023-03-04T04:32:24;1.07;;;0.33;;
12675;SDS011;63820;65.654;21.944;2023-03-04T04:35:08;0.83;;;0.30;;
12675;SDS011;63820;65.654;21.944;2023-03-04T04:37:53;0.57;;;0.40;;
12675;SDS011;63820;65.654;21.944;2023-03-04T04:40:37;1.80;;;0.47;;
12675;SDS011;63820;65.654;21.944;2023-03-04T04:43:21;0.47;;;0.30;;
12675;SDS011;63820;65.654;21.944;2023-03-04T04:46:07;1.60;;;0.40;;
12675;SDS011;63820;65.654;21.944;2023-03-04T04:48:51;0.87;;;0.40;;
12675;SDS011;63820;65.654;21.944;2023-03-04T04:51:36;0.40;;;0.40;;
12675;SDS011;63820;65.654;21.944;2023-03-04T04:54:22;1.23;;;0.30;;
12675;SDS011;63820;65.654;21.944;2023-03-04T04:57:06;2.87;;;0.40;;
12675;SDS011;63820;65.654;21.944;2023-03-04T04:59:50;0.67;;;0.30;;
12675;SDS011;63820;65.654;21.944;2023-03-04T05:02:34;0.30;;;0.30;;
12675;SDS011;63820;65.654;21.944;2023-03-04T05:05:19;0.67;;;0.60;;
12675;SDS011;63820;65.654;21.944;2023-03-04T05:08:03;0.20;;;0.20;;
12675;SDS011;63820;65.654;21.944;2023-03-04T05:10:48;1.50;;;0.43;;
12675;SDS011;63820;65.654;21.944;2023-03-04T05:13:32;0.50;;;0.40;;
12675;SDS011;63820;65.654;21.944;2023-03-04T05:16:17;0.20;;;0.20;;
12675;SDS011;63820;65.654;21.944;2023-03-04T05:19:02;0.47;;;0.30;;
12675;SDS011;63820;65.654;21.944;2023-03-04T05:21:46;1.03;;;0.30;;
12675;SDS011;63820;65.654;21.944;2023-03-04T05:24:30;2.13;;;0.50;;
12675;SDS011;63820;65.654;21.944;2023-03-04T05:27:14;1.77;;;0.47;;
12675;SDS011;63820;65.654;21.944;2023-03-04T05:29:58;0.80;;;0.40;;
12675;SDS011;63820;65.654;21.944;2023-03-04T05:32:43;1.13;;;0.30;;
12675;SDS011;63820;65.654;21.944;2023-03-04T05:35:27;0.60;;;0.40;;
12675;SDS011;63820;65.654;21.944;2023-03-04T05:38:12;1.60;;;0.40;;
12675;SDS011;63820;65.654;21.944;2023-03-04T05:40:58;0.60;;;0.30;;
12675;SDS011;63820;65.654;21.944;2023-03-04T05:43:45;1.30;;;0.40;;
12675;SDS011;63820;65.654;21.944;2023-03-04T05:46:29;0.63;;;0.40;;
12675;SDS011;63820;65.654;21.944;2023-03-04T05:49:13;0.40;;;0.30;;
12675;SDS011;63820;65.654;21.944;2023-03-04T05:51:57;0.97;;;0.37;;
12675;SDS011;63820;65.654;21.944;2023-03-04T05:54:41;0.57;;;0.30;;
12675;SDS011;63820;65.654;21.944;2023-03-04T05:57:25;0.70;;;0.30;;
12675;SDS011;63820;65.654;21.944;2023-03-04T06:00:09;0.87;;;0.37;;
12675;SDS011;63820;65.654;21.944;2023-03-04T06:02:55;1.20;;;0.53;;
12675;SDS011;63820;65.654;21.944;2023-03-04T06:05:39;1.23;;;0.43;;
12675;SDS011;63820;65.654;21.944;2023-03-04T06:08:23;8.80;;;0.90;;
12675;SDS011;63820;65.654;21.944;2023-03-04T06:11:08;1.20;;;0.40;;
12675;SDS011;63820;65.654;21.944;2023-03-04T06:13:53;0.40;;;0.40;;
12675;SDS011;63820;65.654;21.944;2023-03-04T06:16:37;1.23;;;0.30;;
12675;SDS011;63820;65.654;21.944;2023-03-04T06:19:21;0.93;;;0.40;;
12675;SDS011;63820;65.654;21.944;2023-03-04T06:22:06;1.67;;;0.40;;
12675;SDS011;63820;65.654;21.944;2023-03-04T06:24:51;0.50;;;0.47;;
12675;SDS011;63820;65.654;21.944;2023-03-04T06:27:35;1.70;;;0.50;;
12675;SDS011;63820;65.654;21.944;2023-03-04T06:30:19;1.23;;;0.30;;
12675;SDS011;63820;65.654;21.944;2023-03-04T06:33:04;0.63;;;0.43;;
12675;SDS011;63820;65.654;21.944;2023-03-04T06:35:48;1.13;;;0.40;;
12675;SDS011;63820;65.654;21.944;2023-03-04T06:38:37;0.67;;;0.40;;
12675;SDS011;63820;65.654;21.944;2023-03-04T06:41:21;0.83;;;0.30;;
12675;SDS011;63820;65.654;21.944;2023-03-04T06:44:05;0.43;;;0.40;;
12675;SDS011;63820;65.654;21.944;2023-03-04T06:46:49;1.00;;;0.43;;
12675;SDS011;63820;65.654;21.944;2023-03-04T06:49:34;0.73;;;0.40;;
12675;SDS011;63820;65.654;21.944;2023-03-04T06:52:18;2.27;;;0.60;;
12675;SDS011;63820;65.654;21.944;2023-03-04T06:55:03;1.03;;;0.50;;
12675;SDS011;63820;65.654;21.944;2023-03-04T06:57:48;0.57;;;0.40;;
12675;SDS011;63820;65.654;21.944;2023-03-04T07:00:32;1.20;;;0.53;;
12675;SDS011;63820;65.654;21.944;2023-03-04T07:03:16;0.60;;;0.40;;
12675;SDS011;63820;65.654;21.944;2023-03-04T07:06:01;0.50;;;0.37;;
12675;SDS011;63820;65.654;21.944;2023-03-04T07:08:46;0.60;;;0.60;;
12675;SDS011;63820;65.654;21.944;2023-03-04T07:11:30;1.07;;;0.40;;
12675;SDS011;63820;65.654;21.944;2023-03-04T07:14:15;0.20;;;0.20;;
12675;SDS011;63820;65.654;21.944;2023-03-04T07:16:59;1.83;;;0.40;;
12675;SDS011;63820;65.654;21.944;2023-03-04T07:19:43;0.43;;;0.43;;
12675;SDS011;63820;65.654;21.944;2023-03-04T07:22:27;0.63;;;0.40;;
12675;SDS011;63820;65.654;21.944;2023-03-04T07:25:12;0.90;;;0.40;;
12675;SDS011;63820;65.654;21.944;2023-03-04T07:27:56;2.33;;;0.57;;
12675;SDS011;63820;65.654;21.944;2023-03-04T07:30:40;1.13;;;0.60;;
12675;SDS011;63820;65.654;21.944;2023-03-04T07:33:25;0.40;;;0.40;;
12675;SDS011;63820;65.654;21.944;2023-03-04T07:36:09;2.73;;;0.60;;
12675;SDS011;63820;65.654;21.944;2023-03-04T07:38:54;0.77;;;0.30;;
12675;SDS011;63820;65.654;21.944;2023-03-04T07:41:39;1.77;;;0.50;;
12675;SDS011;63820;65.654;21.944;2023-03-04T07:44:24;1.23;;;0.63;;
12675;SDS011;63820;65.654;21.944;2023-03-04T07:47:08;0.83;;;0.50;;
12675;SDS011;63820;65.654;21.944;2023-03-04T07:49:52;0.40;;;0.40;;
12675;SDS011;63820;65.654;21.944;2023-03-04T07:52:41;0.63;;;0.40;;
12675;SDS011;63820;65.654;21.944;2023-03-04T07:55:26;0.90;;;0.50;;
12675;SDS011;63820;65.654;21.944;2023-03-04T07:58:13;1.00;;;0.90;;
12675;SDS011;63820;65.654;21.944;2023-03-04T08:00:57;1.97;;;1.00;;
12675;SDS011;63820;65.654;21.944;2023-03-04T08:03:41;1.40;;;0.80;;
12675;SDS011;63820;65.654;21.944;2023-03-04T08:06:26;2.50;;;0.90;;
12675;SDS011;63820;65.654;21.944;2023-03-04T08:09:10;1.57;;;0.90;;
12675;SDS011;63820;65.654;21.944;2023-03-04T08:11:56;2.10;;;1.03;;
12675;SDS011;63820;65.654;21.944;2023-03-04T08:14:40;0.30;;;0.30;;
12675;SDS011;63820;65.654;21.944;2023-03-04T08:17:24;0.30;;;0.30;;
12675;SDS011;63820;65.654;21.944;2023-03-04T08:20:08;0.50;;;0.30;;
12675;SDS011;63820;65.654;21.944;2023-03-04T08:22:53;0.90;;;0.73;;
12675;SDS011;63820;65.654;21.944;2023-03-04T08:25:38;0.77;;;0.40;;
12675;SDS011;63820;65.654;21.944;2023-03-04T08:28:23;1.23;;;0.60;;
12675;SDS011;63820;65.654;21.944;2023-03-04T08:31:07;0.30;;;0.30;;
12675;SDS011;63820;65.654;21.944;2023-03-04T08:33:52;0.97;;;0.30;;
12675;SDS011;63820;65.654;21.944;2023-03-04T08:36:36;0.50;;;0.40;;
12675;SDS011;63820;65.654;21.944;2023-03-04T08:39:21;0.57;;;0.30;;
12675;SDS011;63820;65.654;21.944;2023-03-04T08:42:05;0.60;;;0.50;;
12675;SDS011;63820;65.654;21.944;2023-03-04T08:44:49;1.63;;;0.43;;
12675;SDS011;63820;65.654;21.944;2023-03-04T08:47:33;1.17;;;0.40;;
12675;SDS011;63820;65.654;21.944;2023-03-04T08:50:18;1.30;;;0.40;;
12675;SDS011;63820;65.654;21.944;2023-03-04T08:53:02;1.10;;;0.37;;
12675;SDS011;63820;65.654;21.944;2023-03-04T08:55:46;0.70;;;0.40;;
12675;SDS011;63820;65.654;21.944;2023-03-04T08:58:31;0.65;;;0.38;;
12675;SDS011;63820;65.654;21.944;2023-03-04T09:01:16;1.60;;;0.43;;
12675;SDS011;63820;65.654;21.944;2023-03-04T09:04:01;1.85;;;0.50;;
12675;SDS011;63820;65.654;21.944;2023-03-04T09:06:45;1.10;;;0.40;;
12675;SDS011;63820;65.654;21.944;2023-03-04T09:09:29;1.27;;;0.30;;
12675;SDS011;63820;65.654;21.944;2023-03-04T09:12:13;0.75;;;0.50;;
12675;SDS011;63820;65.654;21.944;2023-03-04T09:14:57;1.75;;;0.88;;
12675;SDS011;63820;65.654;21.944;2023-03-04T09:17:42;0.80;;;0.57;;
12675;SDS011;63820;65.654;21.944;2023-03-04T09:20:26;1.27;;;0.65;;
12675;SDS011;63820;65.654;21.944;2023-03-04T09:23:10;0.82;;;0.52;;
12675;SDS011;63820;65.654;21.944;2023-03-04T09:25:54;1.13;;;0.40;;
12675;SDS011;63820;65.654;21.944;2023-03-04T09:28:38;1.85;;;0.40;;
12675;SDS011;63820;65.654;21.944;2023-03-04T09:31:23;0.88;;;0.50;;
12675;SDS011;63820;65.654;21.944;2023-03-04T09:34:07;0.52;;;0.35;;
12675;SDS011;63820;65.654;21.944;2023-03-04T09:36:52;1.00;;;0.30;;
12675;SDS011;63820;65.654;21.944;2023-03-04T09:39:36;0.95;;;0.45;;
12675;SDS011;63820;65.654;21.944;2023-03-04T09:42:24;1.42;;;0.60;;
12675;SDS011;63820;65.654;21.944;2023-03-04T09:45:22;0.68;;;0.50;;
12675;SDS011;63820;65.654;21.944;2023-03-04T09:48:11;3.58;;;0.57;;
12675;SDS011;63820;65.654;21.944;2023-03-04T09:51:10;0.80;;;0.40;;
12675;SDS011;63820;65.654;21.944;2023-03-04T09:54:05;1.02;;;0.32;;
12675;SDS011;63820;65.654;21.944;2023-03-04T10:00:21;0.57;;;0.40;;
12675;SDS011;63820;65.654;21.944;2023-03-04T10:06:27;0.90;;;0.47;;
12675;SDS011;63820;65.654;21.944;2023-03-04T10:09:15;0.70;;;0.40;;
12675;SDS011;63820;65.654;21.944;2023-03-04T10:12:05;0.65;;;0.50;;
12675;SDS011;63820;65.654;21.944;2023-03-04T10:14:58;0.50;;;0.28;;
12675;SDS011;63820;65.654;21.944;2023-03-04T10:17:45;1.35;;;0.40;;
12675;SDS011;63820;65.654;21.944;2023-03-04T10:23:33;1.50;;;0.60;;
12675;SDS011;63820;65.654;21.944;2023-03-04T10:26:20;1.90;;;0.50;;
12675;SDS011;63820;65.654;21.944;2023-03-04T10:29:05;2.05;;;0.70;;
12675;SDS011;63820;65.654;21.944;2023-03-04T10:31:52;1.30;;;0.60;;
12675;SDS011;63820;65.654;21.944;2023-03-04T10:34:38;2.20;;;0.52;;
12675;SDS011;63820;65.654;21.944;2023-03-04T10:37:22;0.45;;;0.32;;
12675;SDS011;63820;65.654;21.944;2023-03-04T10:40:16;2.58;;;0.60;;
12675;SDS011;63820;65.654;21.944;2023-03-04T10:43:05;0.95;;;0.50;;
12675;SDS011;63820;65.654;21.944;2023-03-04T10:45:56;1.77;;;0.57;;
12675;SDS011;63820;65.654;21.944;2023-03-04T10:48:42;1.55;;;0.47;;
12675;SDS011;63820;65.654;21.944;2023-03-04T10:51:27;0.95;;;0.50;;
12675;SDS011;63820;65.654;21.944;2023-03-04T10:54:19;1.02;;;0.40;;
12675;SDS011;63820;65.654;21.944;2023-03-04T10:57:05;2.10;;;0.75;;
12675;SDS011;63820;65.654;21.944;2023-03-04T10:59:56;1.27;;;0.50;;
12675;SDS011;63820;65.654;21.944;2023-03-04T11:02:41;1.20;;;0.50;;
12675;SDS011;63820;65.654;21.944;2023-03-04T11:05:26;1.13;;;0.60;;
12675;SDS011;63820;65.654;21.944;2023-03-04T11:08:21;1.25;;;0.45;;
12675;SDS011;63820;65.654;21.944;2023-03-04T11:14:30;1.85;;;0.70;;
12675;SDS011;63820;65.654;21.944;2023-03-04T11:17:30;1.17;;;0.47;;
12675;SDS011;63820;65.654;21.944;2023-03-04T11:20:36;1.73;;;0.50;;
12675;SDS011;63820;65.654;21.944;2023-03-04T11:30:42;0.90;;;0.50;;
12675;SDS011;63820;65.654;21.944;2023-03-04T11:39:45;1.13;;;0.60;;
12675;SDS011;63820;65.654;21.944;2023-03-04T11:42:41;1.42;;;0.60;;
12675;SDS011;63820;65.654;21.944;2023-03-04T11:45:49;1.33;;;0.57;;
12675;SDS011;63820;65.654;21.944;2023-03-04T11:58:19;2.53;;;0.60;;
12675;SDS011;63820;65.654;21.944;2023-03-04T12:23:13;0.77;;;0.47;;
12675;SDS011;63820;65.654;21.944;2023-03-04T12:28:58;1.20;;;0.50;;
12675;SDS011;63820;65.654;21.944;2023-03-04T12:32:10;0.80;;;0.60;;
12675;SDS011;63820;65.654;21.944;2023-03-04T12:35:13;1.17;;;0.50;;
12675;SDS011;63820;65.654;21.944;2023-03-04T12:38:23;1.00;;;0.60;;
12675;SDS011;63820;65.654;21.944;2023-03-04T12:41:31;0.80;;;0.60;;
12675;SDS011;63820;65.654;21.944;2023-03-04T12:44:24;0.97;;;0.50;;
12675;SDS011;63820;65.654;21.944;2023-03-04T12:50:25;0.83;;;0.60;;
12675;SDS011;63820;65.654;21.944;2023-03-04T12:56:24;1.80;;;0.80;;
12675;SDS011;63820;65.654;21.944;2023-03-04T12:59:13;3.03;;;0.90;;
12675;SDS011;63820;65.654;21.944;2023-03-04T13:02:08;1.13;;;0.50;;
12675;SDS011;63820;65.654;21.944;2023-03-04T13:05:30;1.80;;;0.63;;
12675;SDS011;63820;65.654;21.944;2023-03-04T13:17:01;2.30;;;0.70;;
12675;SDS011;63820;65.654;21.944;2023-03-04T13:26:37;1.53;;;0.70;;
12675;SDS011;63820;65.654;21.944;2023-03-04T13:34:42;1.53;;;0.70;;
12675;SDS011;63820;65.654;21.944;2023-03-04T13:37:35;1.73;;;1.30;;
12675;SDS011;63820;65.654;21.944;2023-03-04T13:43:24;2.67;;;1.23;;
12675;SDS011;63820;65.654;21.944;2023-03-04T13:49:02;1.20;;;0.60;;
12675;SDS011;63820;65.654;21.944;2023-03-04T13:51:50;2.20;;;0.70;;
12675;SDS011;63820;65.654;21.944;2023-03-04T13:54:35;1.43;;;0.80;;
12675;SDS011;63820;65.654;21.944;2023-03-04T13:57:20;3.27;;;0.90;;
12675;SDS011;63820;65.654;21.944;2023-03-04T14:00:09;1.83;;;0.80;;
12675;SDS011;63820;65.654;21.944;2023-03-04T14:02:55;1.87;;;0.70;;
12675;SDS011;63820;65.654;21.944;2023-03-04T14:05:39;1.80;;;0.73;;
12675;SDS011;63820;65.654;21.944;2023-03-04T14:08:24;0.80;;;0.70;;
12675;SDS011;63820;65.654;21.944;2023-03-04T14:11:12;2.10;;;0.83;;
12675;SDS011;63820;65.654;21.944;2023-03-04T14:13:58;3.00;;;0.80;;
12675;SDS011;63820;65.654;21.944;2023-03-04T14:16:50;2.50;;;0.90;;
12675;SDS011;63820;65.654;21.944;2023-03-04T14:19:42;1.83;;;0.83;;
12675;SDS011;63820;65.654;21.944;2023-03-04T14:22:28;1.50;;;0.90;;
12675;SDS011;63820;65.654;21.944;2023-03-04T14:28:01;2.47;;;0.90;;
12675;SDS011;63820;65.654;21.944;2023-03-04T14:30:52;1.67;;;0.80;;
12675;SDS011;63820;65.654;21.944;2023-03-04T14:33:38;2.67;;;1.30;;
12675;SDS011;63820;65.654;21.944;2023-03-04T14:36:29;2.13;;;1.27;;
12675;SDS011;63820;65.654;21.944;2023-03-04T14:39:16;2.03;;;1.07;;
12675;SDS011;63820;65.654;21.944;2023-03-04T14:42:07;2.03;;;1.40;;
12675;SDS011;63820;65.654;21.944;2023-03-04T14:44:55;2.57;;;0.83;;
12675;SDS011;63820;65.654;21.944;2023-03-04T14:47:43;5.07;;;0.80;;
12675;SDS011;63820;65.654;21.944;2023-03-04T14:50:30;2.20;;;0.90;;
12675;SDS011;63820;65.654;21.944;2023-03-04T14:53:16;1.57;;;0.87;;
12675;SDS011;63820;65.654;21.944;2023-03-04T14:56:08;1.60;;;0.60;;
12675;SDS011;63820;65.654;21.944;2023-03-04T14:58:54;1.73;;;0.70;;
12675;SDS011;63820;65.654;21.944;2023-03-04T15:01:42;0.87;;;0.60;;
12675;SDS011;63820;65.654;21.944;2023-03-04T15:04:28;1.13;;;0.70;;
12675;SDS011;63820;65.654;21.944;2023-03-04T15:07:14;2.20;;;0.83;;
12675;SDS011;63820;65.654;21.944;2023-03-04T15:10:06;1.37;;;0.60;;
12675;SDS011;63820;65.654;21.944;2023-03-04T15:12:56;2.33;;;0.77;;
12675;SDS011;63820;65.654;21.944;2023-03-04T15:15:45;1.23;;;0.80;;
12675;SDS011;63820;65.654;21.944;2023-03-04T15:18:30;5.97;;;0.90;;
12675;SDS011;63820;65.654;21.944;2023-03-04T15:24:02;4.57;;;1.40;;
12675;SDS011;63820;65.654;21.944;2023-03-04T15:26:48;2.63;;;1.20;;
12675;SDS011;63820;65.654;21.944;2023-03-04T15:29:33;2.33;;;1.07;;
12675;SDS011;63820;65.654;21.944;2023-03-04T15:32:17;4.13;;;1.10;;
12675;SDS011;63820;65.654;21.944;2023-03-04T15:35:01;4.70;;;1.50;;
12675;SDS011;63820;65.654;21.944;2023-03-04T15:37:46;3.33;;;0.90;;
12675;SDS011;63820;65.654;21.944;2023-03-04T15:40:36;2.33;;;1.00;;
12675;SDS011;63820;65.654;21.944;2023-03-04T15:43:24;2.47;;;1.00;;
12675;SDS011;63820;65.654;21.944;2023-03-04T15:46:09;2.83;;;1.07;;
12675;SDS011;63820;65.654;21.944;2023-03-04T15:48:55;4.73;;;0.93;;
12675;SDS011;63820;65.654;21.944;2023-03-04T15:51:39;2.10;;;1.13;;
12675;SDS011;63820;65.654;21.944;2023-03-04T15:54:24;2.00;;;1.10;;
12675;SDS011;63820;65.654;21.944;2023-03-04T15:57:15;3.07;;;1.10;;
12675;SDS011;63820;65.654;21.944;2023-03-04T16:00:04;2.53;;;0.70;;
12675;SDS011;63820;65.654;21.944;2023-03-04T16:02:48;6.40;;;0.83;;
12675;SDS011;63820;65.654;21.944;2023-03-04T16:05:34;2.10;;;1.23;;
12675;SDS011;63820;65.654;21.944;2023-03-04T16:08:20;2.30;;;0.90;;
12675;SDS011;63820;65.654;21.944;2023-03-04T16:11:09;1.40;;;0.60;;
12675;SDS011;63820;65.654;21.944;2023-03-04T16:13:58;4.60;;;0.97;;
12675;SDS011;63820;65.654;21.944;2023-03-04T16:16:42;2.90;;;0.90;;
12675;SDS011;63820;65.654;21.944;2023-03-04T16:19:29;1.07;;;0.70;;
12675;SDS011;63820;65.654;21.944;2023-03-04T16:22:17;1.93;;;0.73;;
12675;SDS011;63820;65.654;21.944;2023-03-04T16:25:13;4.20;;;1.00;;
12675;SDS011;63820;65.654;21.944;2023-03-04T16:27:59;2.60;;;1.17;;
12675;SDS011;63820;65.654;21.944;2023-03-04T16:30:46;2.20;;;0.70;;
12675;SDS011;63820;65.654;21.944;2023-03-04T16:33:32;2.97;;;0.90;;
12675;SDS011;63820;65.654;21.944;2023-03-04T16:36:21;2.23;;;0.83;;
12675;SDS011;63820;65.654;21.944;2023-03-04T16:39:07;2.97;;;0.80;;
12675;SDS011;63820;65.654;21.944;2023-03-04T16:42:02;4.57;;;1.00;;
12675;SDS011;63820;65.654;21.944;2023-03-04T16:44:47;1.80;;;0.80;;
12675;SDS011;63820;65.654;21.944;2023-03-04T16:47:32;1.90;;;0.80;;
12675;SDS011;63820;65.654;21.944;2023-03-04T16:50:18;4.53;;;1.27;;
12675;SDS011;63820;65.654;21.944;2023-03-04T16:53:04;1.17;;;0.80;;
12675;SDS011;63820;65.654;21.944;2023-03-04T16:56:00;2.33;;;1.10;;
12675;SDS011;63820;65.654;21.944;2023-03-04T16:58:48;6.10;;;1.73;;
12675;SDS011;63820;65.654;21.944;2023-03-04T17:01:32;1.63;;;0.97;;
12675;SDS011;63820;65.654;21.944;2023-03-04T17:04:19;2.57;;;1.00;;
12675;SDS011;63820;65.654;21.944;2023-03-04T17:07:04;3.60;;;1.47;;
12675;SDS011;63820;65.654;21.944;2023-03-04T17:09:48;5.80;;;1.60;;
12675;SDS011;63820;65.654;21.944;2023-03-04T17:12:33;2.83;;;1.30;;
12675;SDS011;63820;65.654;21.944;2023-03-04T17:15:17;7.13;;;2.43;;
12675;SDS011;63820;65.654;21.944;2023-03-04T17:18:02;5.40;;;2.57;;
12675;SDS011;63820;65.654;21.944;2023-03-04T17:20:46;12.27;;;5.10;;
12675;SDS011;63820;65.654;21.944;2023-03-04T17:23:30;5.73;;;2.67;;
12675;SDS011;63820;65.654;21.944;2023-03-04T17:26:15;5.40;;;2.43;;
12675;SDS011;63820;65.654;21.944;2023-03-04T17:29:03;4.00;;;1.70;;
12675;SDS011;63820;65.654;21.944;2023-03-04T17:31:47;4.67;;;1.23;;
12675;SDS011;63820;65.654;21.944;2023-03-04T17:34:31;4.93;;;1.20;;
12675;SDS011;63820;65.654;21.944;2023-03-04T17:37:15;4.50;;;1.57;;
12675;SDS011;63820;65.654;21.944;2023-03-04T17:40:01;4.60;;;1.40;;
12675;SDS011;63820;65.654;21.944;2023-03-04T17:42:49;6.93;;;1.57;;
12675;SDS011;63820;65.654;21.944;2023-03-04T17:45:33;7.43;;;1.20;;
12675;SDS011;63820;65.654;21.944;2023-03-04T17:48:17;4.63;;;1.83;;
12675;SDS011;63820;65.654;21.944;2023-03-04T17:51:01;5.63;;;1.40;;
12675;SDS011;63820;65.654;21.944;2023-03-04T17:53:46;4.67;;;1.40;;
12675;SDS011;63820;65.654;21.944;2023-03-04T17:56:30;5.40;;;1.37;;
12675;SDS011;63820;65.654;21.944;2023-03-04T17:59:16;4.43;;;1.50;;
12675;SDS011;63820;65.654;21.944;2023-03-04T18:02:00;2.03;;;0.93;;
12675;SDS011;63820;65.654;21.944;2023-03-04T18:04:44;2.57;;;1.07;;
12675;SDS011;63820;65.654;21.944;2023-03-04T18:07:31;3.10;;;1.20;;
12675;SDS011;63820;65.654;21.944;2023-03-04T18:10:15;5.20;;;1.10;;
12675;SDS011;63820;65.654;21.944;2023-03-04T18:12:59;2.43;;;1.53;;